Pagina principale
METAR-TAF:

METAR-TAF

Aeroporti :

Sigonella, Italia

Base aerea di Sigonella

latitudine: 37-24N, longitudine: 014-55E, altezza: 22 m

Osservazione

Il bollettino è stato emesso 1 ora e 16 minuti fa, alle 06:55 UTC
Vento 3 kt da sud-ovest
Temperature 22°C
Umidità 50%
Pressione 1017 hPa
Visibilità 10 km o più
nessuna nube inferiore a 1500 m e nessun cumulonembo

METAR: LICZ 270655Z 22003KT CAVOK 22/11 Q1017 RMK FEW FEW180 VIS MIN 9999 WIND THR28 /////KT WIND THR10 23004KT A3005 BLU

Ora: 10:11 (08:11 UTC)

Previsione

Il bollettino è stato emesso 3 ore e 11 minuti fa, alle 05:00 UTC
Previsione valida dal 27 alle 06 UTC al 27 alle 15 UTC
Vento 5 kt da ovest
Visibilità 10 km o più
Poco nuvoloso ad un'altezza di 3000 ft
Evoluzione graduale
dal 27 alle 10 UTC al 27 alle 12 UTC
Vento 12 kt da est

TAF: LICZ 270500Z 2706/2715 27005KT 9999 FEW030 BECMG 2710/2712 09012KT

Osservazioni e previsioni meteorologiche di più di 4000 aeroporti (messaggi METAR e TAF).

Le stazioni disponibili sono rappresentate dai dischi gialli e rossi sulla carta.

Puntare il mouse per vedere il nome della stazione.

Clicca sopra per visualizzare le osservazioni e previsioni meteorologiche.

Per cambiare la mappa : fare clic sui pulsanti verdi con una croce nera per ingrandire, il pulsante verde con un trattino per diminuire, o sulla freccia verde per le mappe adiacenti.


METAR-TAF: